Data for 12/12/2005

Time Sea-Level Adjusted Pressure Absolute Pressure Temperature Relative Humidity Dew Point   
(mb) (inHg) (mb) (inHg) (C) (F) (%) (C) (F)
00:05 1022 30.18 851 25.13 -4.5 24 70 -9.1 15.6
00:10 1022 30.18 851 25.13 -4.3 24.2 72 -8.7 16.4
00:15 1022 30.18 851 25.13 -4.5 24 74 -8.4 16.8
00:20 1022 30.18 851 25.13 -4.5 23.9 75 -8.3 17
00:25 1022 30.18 851 25.13 -3.6 25.5 71 -8.2 17.3
00:30 1022 30.18 851 25.13 -3.6 25.5 71 -8.1 17.5
00:35 1021 30.15 851 25.13 -4 24.7 71 -8.5 16.7
00:40 1021 30.15 851 25.13 -4.5 23.9 74 -8.5 16.6
00:45 1021 30.15 851 25.13 -4.6 23.7 75 -8.4 16.9
00:50 1021 30.15 851 25.13 -4 24.8 74 -8 17.6
00:55 1021 30.15 851 25.13 -3.3 26 70 -8 17.6
01:00 1021 30.15 851 25.13 -3.2 26.2 65 -8.9 16
01:05 1021 30.15 851 25.13 -3.6 25.5 67 -8.8 16.1
01:10 1021 30.15 851 25.13 -3.7 25.3 68 -8.8 16.2
01:15 1021 30.15 851 25.13 -3.6 25.6 71 -8.1 17.4
01:20 1021 30.15 851 25.13 -3.5 25.8 72 -7.9 17.8
01:25 1021 30.15 850 25.1 -3.7 25.4 72 -8 17.6
01:30 1021 30.15 850 25.1 -3.6 25.5 71 -8.1 17.4
01:35 1021 30.15 850 25.1 -3.7 25.3 71 -8.2 17.2
01:40 1021 30.15 850 25.1 -3.1 26.3 66 -8.7 16.4
01:45 1021 30.15 850 25.1 -2.7 27.1 64 -8.6 16.4
01:50 1021 30.15 851 25.13 -2.7 27.2 63 -8.7 16.3
01:55 1021 30.15 851 25.13 -2.7 27.1 64 -8.6 16.5
02:00 1021 30.15 851 25.13 -2.9 26.8 66 -8.4 16.8
02:05 1021 30.15 851 25.13 -3.1 26.4 68 -8.1 17.3
02:10 1021 30.15 851 25.13 -3.1 26.5 67 -8.3 17
02:15 1021 30.15 850 25.1 -3.6 25.5 69 -8.4 16.8
02:20 1021 30.15 850 25.1 -4.3 24.3 72 -8.6 16.5
02:25 1021 30.15 850 25.1 -4.4 24 72 -8.7 16.4
02:30 1021 30.15 851 25.13 -4.8 23.4 74 -8.8 16.2
02:35 1021 30.15 851 25.13 -4 24.8 70 -8.7 16.3
02:40 1021 30.15 851 25.13 -3.7 25.3 70 -8.4 16.8
02:45 1021 30.15 851 25.13 -3.9 24.9 70 -8.6 16.5
02:50 1021 30.15 851 25.13 -4.1 24.7 71 -8.6 16.4
02:55 1021 30.15 851 25.13 -4 24.7 70 -8.8 16.1
03:00 1021 30.15 851 25.13 -4.8 23.3 73 -9 15.8
03:05 1021 30.15 851 25.13 -5.3 22.4 75 -9.2 15.5
03:10 1021 30.15 851 25.13 -5 23 72 -9.2 15.4
03:15 1021 30.15 851 25.13 -4.6 23.6 71 -9.2 15.4
03:20 1021 30.15 851 25.13 -4.6 23.7 70 -9.2 15.4
03:25 1021 30.15 850 25.1 -4.9 23.2 71 -9.3 15.2
03:30 1021 30.15 850 25.1 -5 23 71 -9.4 15.1
03:35 1021 30.15 850 25.1 -4.9 23.1 72 -9.3 15.3
03:40 1021 30.15 850 25.1 -4.4 24 70 -9.2 15.5
03:45 1021 30.15 850 25.1 -4 24.8 69 -8.9 15.9
03:50 1021 30.15 850 25.1 -3.7 25.4 68 -8.8 16.2
03:55 1021 30.15 850 25.1 -3.5 25.7 66 -9 15.8
04:00 1021 30.15 850 25.1 -4.2 24.5 68 -9.1 15.6
04:05 1021 30.15 850 25.1 -5.1 22.8 72 -9.4 15
04:10 1021 30.15 850 25.1 -5 23 72 -9.4 15.2
04:15 1021 30.15 850 25.1 -4.5 23.8 70 -9.2 15.4
04:20 1021 30.15 850 25.1 -3.9 24.9 67 -9.2 15.4
04:25 1021 30.15 850 25.1 -4.5 23.9 71 -9 15.9
04:30 1021 30.15 850 25.1 -4.6 23.6 70 -9.4 15.1
04:35 1020 30.12 850 25.1 -4.4 24 69 -9.3 15.3
04:40 1020 30.12 850 25.1 -4.5 23.9 68 -9.5 15
04:45 1020 30.12 850 25.1 -4.9 23.2 71 -9.3 15.3
04:50 1020 30.12 850 25.1 -5.1 22.9 71 -9.5 14.9
04:55 1020 30.12 850 25.1 -5.2 22.6 72 -9.5 14.8
05:00 1020 30.12 850 25.1 -5.1 22.9 71 -9.5 14.8
05:05 1020 30.12 850 25.1 -5.3 22.5 72 -9.5 14.9
05:10 1020 30.12 850 25.1 -5.6 22 74 -9.6 14.8
05:15 1020 30.12 849 25.07 -5.2 22.6 72 -9.5 14.9
05:20 1020 30.12 849 25.07 -5.3 22.5 72 -9.5 14.9
05:25 1020 30.12 849 25.07 -5.1 22.8 71 -9.5 14.9
05:30 1020 30.12 849 25.07 -5 23 71 -9.4 15
05:35 1020 30.12 849 25.07 -5.2 22.7 72 -9.5 14.9
05:40 1020 30.12 849 25.07 -5 23 72 -9.4 15.1
05:45 1020 30.12 849 25.07 -4.8 23.4 69 -9.6 14.8
05:50 1020 30.12 849 25.07 -4.7 23.5 69 -9.6 14.8
05:55 1020 30.12 849 25.07 -4.2 24.4 66 -9.6 14.7
06:00 1020 30.12 849 25.07 -4.1 24.6 66 -9.6 14.7
06:05 1020 30.12 849 25.07 -4.3 24.3 66 -9.7 14.6
06:10 1020 30.12 849 25.07 -4.3 24.3 67 -9.6 14.7
06:15 1020 30.12 849 25.07 -4 24.8 65 -9.7 14.6
06:20 1020 30.12 849 25.07 -4.3 24.3 67 -9.5 14.9
06:25 1020 30.12 849 25.07 -4.5 23.8 67 -9.7 14.6
06:30 1020 30.12 849 25.07 -4.9 23.1 70 -9.6 14.8
06:35 1020 30.12 849 25.07 -5.1 22.9 70 -9.7 14.5
06:40 1020 30.12 849 25.07 -5.2 22.6 70 -9.9 14.2
06:45 1020 30.12 849 25.07 -5.3 22.4 70 -9.9 14.1
06:50 1020 30.12 849 25.07 -5.4 22.3 72 -9.7 14.6
06:55 1020 30.12 849 25.07 -5.7 21.7 72 -10 14
07:00 1020 30.12 849 25.07 -6 21.2 71 -10.5 13.1
07:05 1020 30.12 849 25.07 -6.1 20.9 71 -10.6 12.8
07:10 1020 30.12 849 25.07 -6.3 20.7 71 -10.8 12.6
07:15 1020 30.12 849 25.07 -6.3 20.6 72 -10.6 12.9
07:20 1020 30.12 849 25.07 -6.2 20.8 72 -10.5 13.2
07:25 1020 30.12 849 25.07 -5.8 21.5 70 -10.5 13.1
07:30 1020 30.12 849 25.07 -5.5 22.1 68 -10.5 13.2
07:35 1020 30.12 849 25.07 -5.6 22 70 -10.3 13.5
07:40 1020 30.12 849 25.07 -5.6 21.9 72 -10 14.1
07:45 1020 30.12 849 25.07 -5.5 22 72 -9.8 14.3
07:50 1020 30.12 849 25.07 -5.4 22.4 70 -10 14.1
07:55 1020 30.12 849 25.07 -6.2 20.9 71 -10.5 13
08:00 1020 30.12 849 25.07 -6.2 20.8 72 -10.5 13
08:05 1020 30.12 849 25.07 -6 21.2 72 -10.3 13.4
08:10 1020 30.12 849 25.07 -5.7 21.8 71 -10.1 13.8
08:15 1020 30.12 849 25.07 -5.4 22.2 70 -10.1 13.8
08:20 1020 30.12 849 25.07 -4.9 23.2 68 -10 14
08:25 1020 30.12 849 25.07 -4.3 24.3 65 -9.9 14.3
08:30 1020 30.12 849 25.07 -4.2 24.4 66 -9.7 14.6
08:35 1019 30.09 849 25.07 -4.3 24.3 66 -9.6 14.7
08:40 1019 30.09 849 25.07 -4.2 24.4 65 -9.8 14.4
08:45 1019 30.09 849 25.07 -4 24.8 64 -9.9 14.2
08:50 1019 30.09 849 25.07 -3.9 24.9 64 -9.7 14.5
08:55 1019 30.09 849 25.07 -3.7 25.3 63 -9.7 14.6
09:00 1019 30.09 848 25.04 -3.5 25.6 62 -9.8 14.3
09:05 1019 30.09 848 25.04 -3.3 26.1 61 -9.9 14.2
09:10 1019 30.09 848 25.04 -3.3 26.1 60 -10 14
09:15 1019 30.09 848 25.04 -3.9 25 63 -9.9 14.1
09:20 1019 30.09 848 25.04 -3.6 25.6 62 -9.9 14.1
09:25 1019 30.09 848 25.04 -3.2 26.3 60 -10 14.1
09:30 1019 30.09 848 25.04 -2.9 26.7 59 -9.9 14.2
09:35 1019 30.09 848 25.04 -2.9 26.7 59 -9.9 14.1
09:40 1019 30.09 848 25.04 -2.5 27.5 57 -9.9 14.1
09:45 1019 30.09 848 25.04 -2 28.4 55 -9.8 14.4
09:50 1019 30.09 849 25.07 -1.8 28.7 55 -9.8 14.4
09:55 1019 30.09 848 25.04 -1.2 29.8 52 -9.8 14.4
10:00 1019 30.09 848 25.04 -1 30.2 52 -9.6 14.7
10:05 1019 30.09 848 25.04 -0.6 30.9 51 -9.5 14.9
10:10 1019 30.09 848 25.04 -0.6 30.9 51 -9.6 14.7
10:15 1019 30.09 848 25.04 0 32 51 -9 15.7
10:20 1019 30.09 848 25.04 0.3 32.6 49 -9.1 15.6
10:25 1019 30.09 848 25.04 0.4 32.7 49 -9.2 15.5
10:30 1019 30.09 848 25.04 0.4 32.7 50 -8.9 16
10:35 1019 30.09 848 25.04 -0 32 50 -9.3 15.3
10:40 1019 30.09 848 25.04 0.6 33.1 48 -9 15.7
10:45 1019 30.09 848 25.04 0.7 33.3 48 -9 15.9
10:50 1019 30.09 848 25.04 0.6 33 49 -8.9 16
10:55 1019 30.09 848 25.04 -0.8 30.6 56 -8.5 16.7
11:00 1019 30.09 848 25.04 -1.3 29.7 55 -9.2 15.5
11:05 1019 30.09 848 25.04 -1 30.1 55 -9 15.8
11:10 1018 30.06 848 25.04 -0.7 30.8 53 -9 15.7
11:15 1018 30.06 847 25.01 -0.1 31.8 51 -9 15.7
11:20 1018 30.06 847 25.01 0.3 32.5 50 -8.9 15.9
11:25 1018 30.06 847 25.01 0.6 33 51 -8.5 16.7
11:30 1018 30.06 847 25.01 0.1 32.3 51 -8.7 16.3
11:35 1018 30.06 847 25.01 0.4 32.7 50 -8.8 16.1
11:40 1018 30.06 847 25.01 0.8 33.4 49 -8.7 16.3
11:45 1018 30.06 847 25.01 1.3 34.3 48 -8.6 16.5
11:50 1018 30.06 847 25.01 0.9 33.5 52 -8 17.6
11:55 1017 30.03 847 25.01 1.1 34 49 -8.4 16.9
12:00 1017 30.03 847 25.01 1.5 34.6 50 -7.8 17.9
12:05 1017 30.03 846 24.98 1.1 33.9 51 -8 17.5
12:10 1017 30.03 846 24.98 0.6 33.1 51 -8.4 16.9
12:15 1017 30.03 846 24.98 0.9 33.7 50 -8.4 16.8
12:20 1017 30.03 846 24.98 1.5 34.8 49 -8.2 17.3
12:25 1017 30.03 846 24.98 1.7 35 48 -8.1 17.5
12:30 1017 30.03 846 24.98 1.8 35.2 49 -7.8 17.9
12:35 1017 30.03 846 24.98 1.3 34.3 51 -7.9 17.9
12:40 1017 30.03 846 24.98 1.2 34.2 51 -7.9 17.8
12:45 1017 30.03 846 24.98 1.6 34.9 49 -8 17.7
12:50 1016 30 846 24.98 1.4 34.6 50 -7.8 17.9
12:55 1016 30 846 24.98 1.4 34.4 50 -7.9 17.8
13:00 1016 30 845 24.95 1 33.8 52 -7.8 17.9
13:05 1016 30 845 24.95 0.8 33.5 52 -8 17.7
13:10 1016 30 845 24.95 1 33.8 51 -8 17.7
13:15 1016 30 845 24.95 1.5 34.6 50 -7.8 18
13:20 1016 30 845 24.95 1.5 34.7 49 -8.1 17.4
13:25 1016 30 845 24.95 2 35.7 48 -7.9 17.8
13:30 1016 30 845 24.95 2.2 36 47 -8 17.6
13:35 1016 30 845 24.95 2.2 36 47 -8 17.7
13:40 1016 30 845 24.95 1.3 34.4 49 -8.2 17.3
13:45 1015 29.97 845 24.95 1.2 34.2 49 -8.4 16.8
13:50 1015 29.97 845 24.95 0.9 33.6 52 -7.8 18
13:55 1015 29.97 844 24.92 0.3 32.5 55 -7.7 18.2
14:00 1015 29.97 844 24.92 0.8 33.4 52 -8 17.5
14:05 1015 29.97 844 24.92 1.3 34.3 49 -8.2 17.2
14:10 1015 29.97 844 24.92 1.1 33.9 50 -8.2 17.2
14:15 1015 29.97 844 24.92 1.2 34.2 48 -8.7 16.3
14:20 1015 29.97 844 24.92 1.3 34.3 50 -8.1 17.4
14:25 1015 29.97 844 24.92 1.6 34.8 48 -8.4 16.9
14:30 1015 29.97 844 24.92 2.3 36.1 45 -8.6 16.6
14:35 1015 29.97 844 24.92 2.5 36.5 46 -8.1 17.5
14:40 1015 29.97 844 24.92 2.7 36.8 45 -8.1 17.4
14:45 1014 29.94 844 24.92 3.1 37.6 43 -8.2 17.3
14:50 1014 29.94 844 24.92 2.7 36.8 47 -7.5 18.5
14:55 1014 29.94 844 24.92 1.8 35.3 50 -7.5 18.5
15:00 1014 29.94 844 24.92 1.4 34.5 52 -7.5 18.6
15:05 1014 29.94 843 24.89 1.7 35.1 49 -8 17.6
15:10 1014 29.94 843 24.89 1.8 35.3 48 -7.9 17.7
15:15 1014 29.94 843 24.89 2.2 36 48 -7.7 18.1
15:20 1014 29.94 843 24.89 1.9 35.5 50 -7.5 18.6
15:25 1014 29.94 843 24.89 2.4 36.3 48 -7.5 18.5
15:30 1014 29.94 843 24.89 2.6 36.7 48 -7.2 19
15:35 1014 29.94 843 24.89 2.2 36 50 -7.1 19.3
15:40 1014 29.94 843 24.89 2.2 35.9 51 -7 19.4
15:45 1014 29.94 843 24.89 2 35.5 50 -7.3 18.8
15:50 1014 29.94 843 24.89 1.8 35.2 52 -7 19.4
15:55 1014 29.94 843 24.89 0.4 32.7 57 -7.2 19
16:00 1014 29.94 843 24.89 -0.2 31.7 58 -7.5 18.5
16:05 1014 29.94 843 24.89 0 32 55 -7.9 17.8
16:10 1014 29.94 843 24.89 0.3 32.6 54 -7.8 17.9
16:15 1014 29.94 843 24.89 0.5 32.8 54 -7.8 18
16:20 1014 29.94 843 24.89 0.4 32.7 54 -7.8 18
16:25 1014 29.94 843 24.89 0.2 32.4 54 -8 17.6
16:30 1014 29.94 843 24.89 -0.6 30.9 59 -7.6 18.3
16:35 1014 29.94 843 24.89 -1.5 29.3 61 -8 17.7
16:40 1014 29.94 843 24.89 -1.6 29 62 -8.1 17.5
16:45 1014 29.94 843 24.89 -1.6 29.1 62 -7.9 17.7
16:50 1014 29.94 843 24.89 -2 28.4 63 -8.2 17.3
16:55 1014 29.94 843 24.89 -2.3 27.9 64 -8.1 17.4
17:00 1014 29.94 843 24.89 -2 28.4 63 -8.2 17.3
17:05 1014 29.94 843 24.89 -1.6 29.1 61 -8.2 17.2
17:10 1014 29.94 843 24.89 -1.8 28.8 62 -8.1 17.4
17:15 1014 29.94 843 24.89 -2.8 27 66 -8.3 17.1
17:20 1014 29.94 843 24.89 -3.4 25.8 67 -8.8 16.2
17:25 1014 29.94 843 24.89 -3.8 25.2 69 -8.7 16.4
17:30 1014 29.94 843 24.89 -4.1 24.7 69 -8.9 16
17:35 1013 29.91 843 24.89 -4.4 24.1 69 -9.3 15.3
17:40 1013 29.91 842 24.86 -4.6 23.7 72 -8.8 16.1
17:45 1013 29.91 842 24.86 -4.6 23.6 71 -9 15.7
17:50 1013 29.91 842 24.86 -4.2 24.4 70 -8.9 16
17:55 1013 29.91 842 24.86 -3.8 25.1 69 -8.7 16.4
18:00 1013 29.91 842 24.86 -4.4 24.2 71 -8.9 16.1
18:05 1013 29.91 842 24.86 -4.7 23.6 72 -9 15.8
18:10 1013 29.91 842 24.86 -4.4 24.2 70 -9 15.8
18:15 1013 29.91 842 24.86 -4 24.8 68 -9.1 15.7
18:20 1012 29.88 842 24.86 -3.8 25.2 69 -8.7 16.3
18:25 1012 29.88 842 24.86 -3.7 25.4 69 -8.6 16.5
18:30 1012 29.88 841 24.83 -3.6 25.5 69 -8.5 16.8
18:35 1012 29.88 841 24.83 -3.4 25.8 69 -8.3 17.1
18:40 1012 29.88 841 24.83 -2.9 26.8 68 -8 17.7
18:45 1012 29.88 841 24.83 -2.5 27.5 66 -8 17.6
18:50 1012 29.88 841 24.83 -2.8 26.9 68 -7.9 17.8
18:55 1012 29.88 841 24.83 -2.6 27.4 67 -7.9 17.8
19:00 1012 29.88 841 24.83 -2.3 27.9 66 -7.8 18
19:05 1012 29.88 841 24.83 -2 28.4 64 -8 17.5
19:10 1012 29.88 841 24.83 -2.2 28.1 63 -8.2 17.2
19:15 1012 29.88 841 24.83 -2.4 27.7 64 -8.3 17.1
19:20 1012 29.88 841 24.83 -1.6 29.2 59 -8.7 16.4
19:25 1012 29.88 841 24.83 -1.3 29.6 59 -8.3 17.1
19:30 1012 29.88 841 24.83 -1.5 29.2 63 -7.8 18
19:35 1012 29.88 841 24.83 -2.1 28.1 64 -8.2 17.3
19:40 1012 29.88 841 24.83 -3.2 26.3 67 -8.4 16.8
19:45 1012 29.88 841 24.83 -3.7 25.4 68 -8.8 16.1
19:50 1012 29.88 841 24.83 -3.9 25 71 -8.4 16.8
19:55 1011 29.85 841 24.83 -2.9 26.7 63 -8.9 15.9
20:00 1011 29.85 841 24.83 -2.7 27.1 66 -8.3 17.1
20:05 1011 29.85 840 24.81 -2.9 26.8 68 -7.9 17.7
20:10 1011 29.85 840 24.81 -2 28.4 61 -8.5 16.8
20:15 1011 29.85 840 24.81 -2.4 27.7 63 -8.5 16.6
20:20 1011 29.85 840 24.81 -2.1 28.1 61 -8.7 16.3
20:25 1011 29.85 840 24.81 -2.6 27.3 63 -8.8 16.2
20:30 1011 29.85 840 24.81 -3.2 26.3 64 -9.1 15.7
20:35 1011 29.85 840 24.81 -3.4 25.9 64 -9.2 15.4
20:40 1011 29.85 840 24.81 -3.1 26.4 63 -9.2 15.4
20:45 1010 29.83 840 24.81 -2.7 27.1 61 -9.3 15.3
20:50 1010 29.83 840 24.81 -2.7 27.1 63 -8.9 16
20:55 1010 29.83 840 24.81 -2.5 27.5 61 -9 15.8
21:00 1010 29.83 839 24.78 -2.7 27.1 62 -9.1 15.6
21:05 1010 29.83 839 24.78 -2.8 27 63 -8.9 16
21:10 1010 29.83 839 24.78 -3.1 26.4 65 -8.7 16.3
21:15 1010 29.83 839 24.78 -3.6 25.5 66 -9 15.8
21:20 1010 29.83 839 24.78 -3.4 25.8 64 -9.3 15.3
21:25 1010 29.83 839 24.78 -2.8 27 61 -9.2 15.4
21:30 1010 29.83 839 24.78 -2.7 27.2 59 -9.5 14.9
21:35 1010 29.83 839 24.78 -2.5 27.5 59 -9.4 15.1
21:40 1009 29.8 839 24.78 -1.7 28.9 58 -9 15.9
21:45 1009 29.8 839 24.78 -1.7 28.9 57 -9.2 15.4
21:50 1009 29.8 839 24.78 -1.4 29.6 56 -8.9 15.9
21:55 1009 29.8 838 24.75 -0.9 30.4 53 -9.2 15.5
22:00 1009 29.8 838 24.75 -1.4 29.5 56 -9.2 15.5
22:05 1009 29.8 838 24.75 -2.3 27.8 58 -9.6 14.7
22:10 1009 29.8 838 24.75 -1.9 28.7 57 -9.4 15.1
22:15 1009 29.8 838 24.75 -1.4 29.4 57 -9 15.9
22:20 1008 29.77 838 24.75 -1.8 28.8 57 -9.2 15.5
22:25 1008 29.77 838 24.75 -1.9 28.5 58 -9.1 15.6
22:30 1008 29.77 838 24.75 -1.8 28.7 57 -9.3 15.2
22:35 1008 29.77 838 24.75 -1.4 29.5 54 -9.5 14.8
22:40 1008 29.77 838 24.75 -1 30.2 56 -8.7 16.4
22:45 1008 29.77 838 24.75 -0.6 30.9 54 -8.8 16.2
22:50 1008 29.77 838 24.75 -0 32 52 -8.7 16.3
22:55 1008 29.77 838 24.75 -0.5 31.1 56 -8.1 17.3
23:00 1008 29.77 837 24.72 -1.7 28.9 60 -8.5 16.8
23:05 1008 29.77 837 24.72 -2.8 27 63 -8.8 16.1
23:10 1008 29.77 837 24.72 -3 26.6 63 -9.1 15.6
23:15 1008 29.77 837 24.72 -3.4 25.8 63 -9.6 14.8
23:20 1008 29.77 838 24.75 -2.9 26.7 63 -9 15.9
23:25 1008 29.77 838 24.75 -3.5 25.8 66 -9 15.9
23:30 1008 29.77 838 24.75 -4.2 24.4 68 -9.2 15.5
23:35 1009 29.8 838 24.75 -5 23.1 71 -9.4 15.1
23:40 1008 29.77 838 24.75 -5.6 21.9 75 -9.3 15.2
23:45 1008 29.77 837 24.72 -5.8 21.6 75 -9.6 14.8
23:50 1008 29.77 838 24.75 -5.6 21.9 74 -9.5 14.8
23:55 1008 29.77 838 24.75 -5.7 21.7 74 -9.6 14.7
24:00 1008 29.77 838 24.75 -5.9 21.5 75 -9.6 14.7